sensor_id;sensor_type;location;lat;lon;timestamp;P1;durP1;ratioP1;P2;durP2;ratioP2
38083;SDS011;23894;51.466;7.444;2023-04-24T00:00:54;2.78;;;1.05;;
38083;SDS011;23894;51.466;7.444;2023-04-24T00:03:01;3.38;;;1.10;;
38083;SDS011;23894;51.466;7.444;2023-04-24T00:05:06;3.73;;;1.20;;
38083;SDS011;23894;51.466;7.444;2023-04-24T00:07:28;2.80;;;1.10;;
38083;SDS011;23894;51.466;7.444;2023-04-24T00:09:30;4.15;;;1.08;;
38083;SDS011;23894;51.466;7.444;2023-04-24T00:11:33;3.25;;;1.20;;
38083;SDS011;23894;51.466;7.444;2023-04-24T00:13:35;4.35;;;1.20;;
38083;SDS011;23894;51.466;7.444;2023-04-24T00:15:39;2.95;;;1.25;;
38083;SDS011;23894;51.466;7.444;2023-04-24T00:17:41;3.35;;;1.30;;
38083;SDS011;23894;51.466;7.444;2023-04-24T00:19:44;2.93;;;1.10;;
38083;SDS011;23894;51.466;7.444;2023-04-24T00:21:46;3.03;;;1.02;;
38083;SDS011;23894;51.466;7.444;2023-04-24T00:23:51;3.70;;;1.25;;
38083;SDS011;23894;51.466;7.444;2023-04-24T00:25:54;2.63;;;1.13;;
38083;SDS011;23894;51.466;7.444;2023-04-24T00:27:55;3.05;;;1.30;;
38083;SDS011;23894;51.466;7.444;2023-04-24T00:29:57;3.97;;;1.55;;
38083;SDS011;23894;51.466;7.444;2023-04-24T00:32:01;4.32;;;1.60;;
38083;SDS011;23894;51.466;7.444;2023-04-24T00:34:03;3.67;;;1.50;;
38083;SDS011;23894;51.466;7.444;2023-04-24T00:36:07;4.55;;;1.60;;
38083;SDS011;23894;51.466;7.444;2023-04-24T00:38:11;3.90;;;1.50;;
38083;SDS011;23894;51.466;7.444;2023-04-24T00:40:13;2.90;;;1.38;;
38083;SDS011;23894;51.466;7.444;2023-04-24T00:42:16;4.13;;;1.48;;
38083;SDS011;23894;51.466;7.444;2023-04-24T00:44:17;3.80;;;1.60;;
38083;SDS011;23894;51.466;7.444;2023-04-24T00:46:21;4.67;;;1.70;;
38083;SDS011;23894;51.466;7.444;2023-04-24T00:48:25;4.00;;;1.58;;
38083;SDS011;23894;51.466;7.444;2023-04-24T00:50:28;4.53;;;1.50;;
38083;SDS011;23894;51.466;7.444;2023-04-24T00:52:29;4.97;;;1.80;;
38083;SDS011;23894;51.466;7.444;2023-04-24T00:54:34;3.78;;;1.60;;
38083;SDS011;23894;51.466;7.444;2023-04-24T00:56:35;5.20;;;1.60;;
38083;SDS011;23894;51.466;7.444;2023-04-24T00:58:38;4.35;;;1.80;;
38083;SDS011;23894;51.466;7.444;2023-04-24T01:00:43;4.97;;;1.90;;
38083;SDS011;23894;51.466;7.444;2023-04-24T01:03:08;4.85;;;1.90;;
38083;SDS011;23894;51.466;7.444;2023-04-24T01:05:09;5.33;;;2.20;;
38083;SDS011;23894;51.466;7.444;2023-04-24T01:07:12;4.32;;;1.80;;
38083;SDS011;23894;51.466;7.444;2023-04-24T01:09:15;4.57;;;2.08;;
38083;SDS011;23894;51.466;7.444;2023-04-24T01:11:18;4.10;;;1.80;;
38083;SDS011;23894;51.466;7.444;2023-04-24T01:13:21;5.00;;;1.90;;
38083;SDS011;23894;51.466;7.444;2023-04-24T01:15:23;4.82;;;2.03;;
38083;SDS011;23894;51.466;7.444;2023-04-24T01:17:26;4.00;;;1.60;;
38083;SDS011;23894;51.466;7.444;2023-04-24T01:19:27;6.78;;;2.08;;
38083;SDS011;23894;51.466;7.444;2023-04-24T01:21:28;4.13;;;1.85;;
38083;SDS011;23894;51.466;7.444;2023-04-24T01:23:32;6.50;;;2.00;;
38083;SDS011;23894;51.466;7.444;2023-04-24T01:25:36;5.05;;;2.00;;
38083;SDS011;23894;51.466;7.444;2023-04-24T01:27:37;4.50;;;1.85;;
38083;SDS011;23894;51.466;7.444;2023-04-24T01:29:40;4.60;;;1.90;;
38083;SDS011;23894;51.466;7.444;2023-04-24T01:31:43;5.35;;;2.03;;
38083;SDS011;23894;51.466;7.444;2023-04-24T01:33:44;4.30;;;1.70;;
38083;SDS011;23894;51.466;7.444;2023-04-24T01:35:46;4.88;;;1.98;;
38083;SDS011;23894;51.466;7.444;2023-04-24T01:37:57;5.38;;;2.03;;
38083;SDS011;23894;51.466;7.444;2023-04-24T01:39:59;4.20;;;1.70;;
38083;SDS011;23894;51.466;7.444;2023-04-24T01:42:02;4.83;;;2.00;;
38083;SDS011;23894;51.466;7.444;2023-04-24T01:44:06;5.63;;;1.98;;
38083;SDS011;23894;51.466;7.444;2023-04-24T01:46:09;5.93;;;2.03;;
38083;SDS011;23894;51.466;7.444;2023-04-24T01:48:12;4.65;;;1.90;;
38083;SDS011;23894;51.466;7.444;2023-04-24T01:50:15;4.85;;;2.10;;
38083;SDS011;23894;51.466;7.444;2023-04-24T01:52:18;4.72;;;1.90;;
38083;SDS011;23894;51.466;7.444;2023-04-24T01:54:22;5.40;;;2.10;;
38083;SDS011;23894;51.466;7.444;2023-04-24T01:56:25;5.72;;;1.80;;
38083;SDS011;23894;51.466;7.444;2023-04-24T01:58:29;5.05;;;2.28;;
38083;SDS011;23894;51.466;7.444;2023-04-24T02:00:31;4.22;;;1.80;;
38083;SDS011;23894;51.466;7.444;2023-04-24T02:02:32;5.90;;;2.10;;
38083;SDS011;23894;51.466;7.444;2023-04-24T02:04:33;5.07;;;2.00;;
38083;SDS011;23894;51.466;7.444;2023-04-24T02:06:35;5.57;;;2.20;;
38083;SDS011;23894;51.466;7.444;2023-04-24T02:08:38;4.13;;;1.90;;
38083;SDS011;23894;51.466;7.444;2023-04-24T02:10:41;4.43;;;1.98;;
38083;SDS011;23894;51.466;7.444;2023-04-24T02:12:44;5.70;;;2.20;;
38083;SDS011;23894;51.466;7.444;2023-04-24T02:14:47;5.22;;;2.30;;
38083;SDS011;23894;51.466;7.444;2023-04-24T02:16:51;5.20;;;2.27;;
38083;SDS011;23894;51.466;7.444;2023-04-24T02:18:55;5.15;;;2.30;;
38083;SDS011;23894;51.466;7.444;2023-04-24T02:20:56;4.82;;;2.10;;
38083;SDS011;23894;51.466;7.444;2023-04-24T02:22:57;5.15;;;2.40;;
38083;SDS011;23894;51.466;7.444;2023-04-24T02:25:00;6.47;;;2.92;;
38083;SDS011;23894;51.466;7.444;2023-04-24T02:27:01;5.45;;;2.78;;
38083;SDS011;23894;51.466;7.444;2023-04-24T02:29:03;5.75;;;2.60;;
38083;SDS011;23894;51.466;7.444;2023-04-24T02:31:07;5.87;;;2.73;;
38083;SDS011;23894;51.466;7.444;2023-04-24T02:33:09;6.07;;;2.72;;
38083;SDS011;23894;51.466;7.444;2023-04-24T02:35:11;5.20;;;2.80;;
38083;SDS011;23894;51.466;7.444;2023-04-24T02:37:14;5.72;;;2.70;;
38083;SDS011;23894;51.466;7.444;2023-04-24T02:39:17;6.55;;;3.05;;
38083;SDS011;23894;51.466;7.444;2023-04-24T02:41:19;6.55;;;3.50;;
38083;SDS011;23894;51.466;7.444;2023-04-24T02:43:21;8.10;;;3.70;;
38083;SDS011;23894;51.466;7.444;2023-04-24T02:45:23;6.50;;;3.53;;
38083;SDS011;23894;51.466;7.444;2023-04-24T02:47:25;6.70;;;4.30;;
38083;SDS011;23894;51.466;7.444;2023-04-24T02:49:27;7.25;;;3.88;;
38083;SDS011;23894;51.466;7.444;2023-04-24T02:51:29;7.88;;;4.40;;
38083;SDS011;23894;51.466;7.444;2023-04-24T02:53:31;6.57;;;3.95;;
38083;SDS011;23894;51.466;7.444;2023-04-24T02:55:34;7.10;;;4.10;;
38083;SDS011;23894;51.466;7.444;2023-04-24T02:57:35;8.45;;;4.50;;
38083;SDS011;23894;51.466;7.444;2023-04-24T02:59:39;7.82;;;5.25;;
38083;SDS011;23894;51.466;7.444;2023-04-24T03:01:41;8.32;;;4.75;;
38083;SDS011;23894;51.466;7.444;2023-04-24T03:03:43;9.00;;;5.47;;
38083;SDS011;23894;51.466;7.444;2023-04-24T03:05:47;8.52;;;5.90;;
38083;SDS011;23894;51.466;7.444;2023-04-24T03:08:00;9.60;;;6.13;;
38083;SDS011;23894;51.466;7.444;2023-04-24T03:10:04;10.75;;;7.88;;
38083;SDS011;23894;51.466;7.444;2023-04-24T03:12:16;9.15;;;6.75;;
38083;SDS011;23894;51.466;7.444;2023-04-24T03:14:18;11.27;;;8.17;;
38083;SDS011;23894;51.466;7.444;2023-04-24T03:16:19;11.75;;;8.27;;
38083;SDS011;23894;51.466;7.444;2023-04-24T03:18:22;11.82;;;9.30;;
38083;SDS011;23894;51.466;7.444;2023-04-24T03:20:23;11.73;;;8.63;;
38083;SDS011;23894;51.466;7.444;2023-04-24T03:22:25;11.80;;;8.70;;
38083;SDS011;23894;51.466;7.444;2023-04-24T03:24:27;12.95;;;9.40;;
38083;SDS011;23894;51.466;7.444;2023-04-24T03:26:32;12.73;;;9.77;;
38083;SDS011;23894;51.466;7.444;2023-04-24T03:28:34;12.77;;;9.77;;
38083;SDS011;23894;51.466;7.444;2023-04-24T03:30:36;12.55;;;10.05;;
38083;SDS011;23894;51.466;7.444;2023-04-24T03:32:39;12.93;;;10.20;;
38083;SDS011;23894;51.466;7.444;2023-04-24T03:34:42;13.05;;;10.18;;
38083;SDS011;23894;51.466;7.444;2023-04-24T03:36:44;14.20;;;10.60;;
38083;SDS011;23894;51.466;7.444;2023-04-24T03:38:49;14.73;;;10.77;;
38083;SDS011;23894;51.466;7.444;2023-04-24T03:40:51;14.77;;;10.50;;
38083;SDS011;23894;51.466;7.444;2023-04-24T03:42:53;13.98;;;11.10;;
38083;SDS011;23894;51.466;7.444;2023-04-24T03:44:55;14.25;;;11.13;;
38083;SDS011;23894;51.466;7.444;2023-04-24T03:46:57;13.98;;;10.88;;
38083;SDS011;23894;51.466;7.444;2023-04-24T03:49:00;15.27;;;10.93;;
38083;SDS011;23894;51.466;7.444;2023-04-24T03:51:02;14.65;;;11.10;;
38083;SDS011;23894;51.466;7.444;2023-04-24T03:53:03;14.75;;;11.65;;
38083;SDS011;23894;51.466;7.444;2023-04-24T03:55:06;14.55;;;11.65;;
38083;SDS011;23894;51.466;7.444;2023-04-24T03:57:10;16.52;;;12.27;;
38083;SDS011;23894;51.466;7.444;2023-04-24T03:59:12;14.40;;;11.88;;
38083;SDS011;23894;51.466;7.444;2023-04-24T04:01:13;14.80;;;11.55;;
38083;SDS011;23894;51.466;7.444;2023-04-24T04:03:15;15.15;;;11.55;;
38083;SDS011;23894;51.466;7.444;2023-04-24T04:05:16;15.30;;;11.65;;
38083;SDS011;23894;51.466;7.444;2023-04-24T04:07:17;14.90;;;11.25;;
38083;SDS011;23894;51.466;7.444;2023-04-24T04:09:18;13.23;;;11.10;;
38083;SDS011;23894;51.466;7.444;2023-04-24T04:11:21;16.05;;;11.98;;
38083;SDS011;23894;51.466;7.444;2023-04-24T04:13:22;16.38;;;11.95;;
38083;SDS011;23894;51.466;7.444;2023-04-24T04:15:23;15.98;;;12.27;;
38083;SDS011;23894;51.466;7.444;2023-04-24T04:17:26;16.15;;;12.05;;
38083;SDS011;23894;51.466;7.444;2023-04-24T04:19:27;16.63;;;12.63;;
38083;SDS011;23894;51.466;7.444;2023-04-24T04:21:29;16.23;;;12.52;;
38083;SDS011;23894;51.466;7.444;2023-04-24T04:23:32;14.18;;;11.90;;
38083;SDS011;23894;51.466;7.444;2023-04-24T04:25:34;15.82;;;12.20;;
38083;SDS011;23894;51.466;7.444;2023-04-24T04:27:35;15.20;;;12.60;;
38083;SDS011;23894;51.466;7.444;2023-04-24T04:29:36;15.07;;;11.68;;
38083;SDS011;23894;51.466;7.444;2023-04-24T04:31:38;14.17;;;12.03;;
38083;SDS011;23894;51.466;7.444;2023-04-24T04:33:40;16.77;;;12.45;;
38083;SDS011;23894;51.466;7.444;2023-04-24T04:35:43;14.60;;;11.60;;
38083;SDS011;23894;51.466;7.444;2023-04-24T04:37:48;15.18;;;12.07;;
38083;SDS011;23894;51.466;7.444;2023-04-24T04:39:49;15.25;;;12.88;;
38083;SDS011;23894;51.466;7.444;2023-04-24T04:41:51;15.65;;;11.85;;
38083;SDS011;23894;51.466;7.444;2023-04-24T04:43:53;15.65;;;12.52;;
38083;SDS011;23894;51.466;7.444;2023-04-24T04:45:54;16.10;;;12.73;;
38083;SDS011;23894;51.466;7.444;2023-04-24T04:47:58;15.93;;;12.93;;
38083;SDS011;23894;51.466;7.444;2023-04-24T04:50:02;17.23;;;13.25;;
38083;SDS011;23894;51.466;7.444;2023-04-24T04:52:05;16.08;;;13.00;;
38083;SDS011;23894;51.466;7.444;2023-04-24T04:54:06;16.35;;;12.65;;
38083;SDS011;23894;51.466;7.444;2023-04-24T04:56:10;17.45;;;12.77;;
38083;SDS011;23894;51.466;7.444;2023-04-24T04:58:12;15.73;;;12.50;;
38083;SDS011;23894;51.466;7.444;2023-04-24T05:00:14;15.68;;;13.70;;
38083;SDS011;23894;51.466;7.444;2023-04-24T05:02:16;15.63;;;13.20;;
38083;SDS011;23894;51.466;7.444;2023-04-24T05:04:17;18.55;;;13.38;;
38083;SDS011;23894;51.466;7.444;2023-04-24T05:06:18;15.50;;;13.00;;
38083;SDS011;23894;51.466;7.444;2023-04-24T05:08:20;16.85;;;13.57;;
38083;SDS011;23894;51.466;7.444;2023-04-24T05:10:22;17.00;;;13.68;;
38083;SDS011;23894;51.466;7.444;2023-04-24T05:12:23;19.25;;;13.25;;
38083;SDS011;23894;51.466;7.444;2023-04-24T05:14:25;18.75;;;13.82;;
38083;SDS011;23894;51.466;7.444;2023-04-24T05:16:29;17.07;;;13.70;;
38083;SDS011;23894;51.466;7.444;2023-04-24T05:18:32;16.70;;;13.27;;
38083;SDS011;23894;51.466;7.444;2023-04-24T05:20:34;18.05;;;13.20;;
38083;SDS011;23894;51.466;7.444;2023-04-24T05:22:35;16.73;;;13.05;;
38083;SDS011;23894;51.466;7.444;2023-04-24T05:24:36;15.82;;;13.30;;
38083;SDS011;23894;51.466;7.444;2023-04-24T05:26:39;15.95;;;12.98;;
38083;SDS011;23894;51.466;7.444;2023-04-24T05:28:40;15.00;;;13.07;;
38083;SDS011;23894;51.466;7.444;2023-04-24T05:30:41;15.73;;;12.32;;
38083;SDS011;23894;51.466;7.444;2023-04-24T05:32:43;13.73;;;10.95;;
38083;SDS011;23894;51.466;7.444;2023-04-24T05:34:46;15.13;;;11.65;;
38083;SDS011;23894;51.466;7.444;2023-04-24T05:36:47;13.38;;;10.80;;
38083;SDS011;23894;51.466;7.444;2023-04-24T05:38:50;16.58;;;11.30;;
38083;SDS011;23894;51.466;7.444;2023-04-24T05:40:51;14.60;;;11.23;;
38083;SDS011;23894;51.466;7.444;2023-04-24T05:42:52;15.10;;;11.50;;
38083;SDS011;23894;51.466;7.444;2023-04-24T05:44:55;12.80;;;10.65;;
38083;SDS011;23894;51.466;7.444;2023-04-24T05:46:58;15.68;;;11.25;;
38083;SDS011;23894;51.466;7.444;2023-04-24T05:48:59;13.73;;;10.88;;
38083;SDS011;23894;51.466;7.444;2023-04-24T05:50:59;13.00;;;10.10;;
38083;SDS011;23894;51.466;7.444;2023-04-24T05:53:01;14.93;;;11.23;;
38083;SDS011;23894;51.466;7.444;2023-04-24T05:55:03;14.32;;;11.07;;
38083;SDS011;23894;51.466;7.444;2023-04-24T05:57:04;13.32;;;9.95;;
38083;SDS011;23894;51.466;7.444;2023-04-24T05:59:08;14.65;;;10.75;;
38083;SDS011;23894;51.466;7.444;2023-04-24T06:01:09;14.07;;;11.07;;
38083;SDS011;23894;51.466;7.444;2023-04-24T06:03:11;13.67;;;10.90;;
38083;SDS011;23894;51.466;7.444;2023-04-24T06:05:14;12.07;;;10.60;;
38083;SDS011;23894;51.466;7.444;2023-04-24T06:07:16;15.55;;;10.80;;
38083;SDS011;23894;51.466;7.444;2023-04-24T06:09:17;14.20;;;10.85;;
38083;SDS011;23894;51.466;7.444;2023-04-24T06:11:19;14.02;;;10.43;;
38083;SDS011;23894;51.466;7.444;2023-04-24T06:13:22;13.85;;;10.68;;
38083;SDS011;23894;51.466;7.444;2023-04-24T06:15:24;12.23;;;10.40;;
38083;SDS011;23894;51.466;7.444;2023-04-24T06:17:26;12.55;;;9.90;;
38083;SDS011;23894;51.466;7.444;2023-04-24T06:19:27;11.93;;;9.60;;
38083;SDS011;23894;51.466;7.444;2023-04-24T06:21:29;13.20;;;10.77;;
38083;SDS011;23894;51.466;7.444;2023-04-24T06:23:31;11.57;;;9.60;;
38083;SDS011;23894;51.466;7.444;2023-04-24T06:25:32;13.25;;;10.00;;
38083;SDS011;23894;51.466;7.444;2023-04-24T06:27:35;12.95;;;10.05;;
38083;SDS011;23894;51.466;7.444;2023-04-24T06:29:36;12.20;;;8.88;;
38083;SDS011;23894;51.466;7.444;2023-04-24T06:31:40;13.00;;;8.55;;
38083;SDS011;23894;51.466;7.444;2023-04-24T06:33:41;12.18;;;8.10;;
38083;SDS011;23894;51.466;7.444;2023-04-24T06:35:42;9.43;;;7.32;;
38083;SDS011;23894;51.466;7.444;2023-04-24T06:37:44;10.85;;;7.45;;
38083;SDS011;23894;51.466;7.444;2023-04-24T06:39:45;9.30;;;6.97;;
38083;SDS011;23894;51.466;7.444;2023-04-24T06:41:48;10.65;;;7.32;;
38083;SDS011;23894;51.466;7.444;2023-04-24T06:43:49;9.57;;;7.20;;
38083;SDS011;23894;51.466;7.444;2023-04-24T06:45:52;11.00;;;7.25;;
38083;SDS011;23894;51.466;7.444;2023-04-24T06:47:53;13.38;;;7.30;;
38083;SDS011;23894;51.466;7.444;2023-04-24T06:49:57;9.00;;;6.78;;
38083;SDS011;23894;51.466;7.444;2023-04-24T06:51:59;10.77;;;7.13;;
38083;SDS011;23894;51.466;7.444;2023-04-24T06:54:01;10.13;;;7.10;;
38083;SDS011;23894;51.466;7.444;2023-04-24T06:56:03;9.77;;;6.70;;
38083;SDS011;23894;51.466;7.444;2023-04-24T06:58:05;9.80;;;6.50;;
38083;SDS011;23894;51.466;7.444;2023-04-24T07:00:08;9.57;;;7.05;;
38083;SDS011;23894;51.466;7.444;2023-04-24T07:02:11;8.40;;;6.60;;
38083;SDS011;23894;51.466;7.444;2023-04-24T07:04:12;8.45;;;6.05;;
38083;SDS011;23894;51.466;7.444;2023-04-24T07:06:14;9.07;;;6.43;;
38083;SDS011;23894;51.466;7.444;2023-04-24T07:08:21;8.38;;;6.20;;
38083;SDS011;23894;51.466;7.444;2023-04-24T07:10:22;7.38;;;6.05;;
38083;SDS011;23894;51.466;7.444;2023-04-24T07:12:29;9.13;;;6.68;;
38083;SDS011;23894;51.466;7.444;2023-04-24T07:14:30;9.67;;;6.47;;
38083;SDS011;23894;51.466;7.444;2023-04-24T07:16:33;8.52;;;6.38;;
38083;SDS011;23894;51.466;7.444;2023-04-24T07:18:36;7.90;;;6.30;;
38083;SDS011;23894;51.466;7.444;2023-04-24T07:20:41;8.45;;;6.28;;
38083;SDS011;23894;51.466;7.444;2023-04-24T07:22:44;8.70;;;6.47;;
38083;SDS011;23894;51.466;7.444;2023-04-24T07:24:48;8.90;;;6.60;;
38083;SDS011;23894;51.466;7.444;2023-04-24T07:26:51;7.78;;;5.85;;
38083;SDS011;23894;51.466;7.444;2023-04-24T07:28:53;6.75;;;5.20;;
38083;SDS011;23894;51.466;7.444;2023-04-24T07:30:57;7.38;;;5.25;;
38083;SDS011;23894;51.466;7.444;2023-04-24T07:33:00;6.88;;;4.68;;
38083;SDS011;23894;51.466;7.444;2023-04-24T07:35:01;7.88;;;4.68;;
38083;SDS011;23894;51.466;7.444;2023-04-24T07:37:03;5.50;;;3.20;;
38083;SDS011;23894;51.466;7.444;2023-04-24T07:39:06;5.18;;;2.92;;
38083;SDS011;23894;51.466;7.444;2023-04-24T07:41:09;6.25;;;3.17;;
38083;SDS011;23894;51.466;7.444;2023-04-24T07:43:10;6.28;;;3.17;;
38083;SDS011;23894;51.466;7.444;2023-04-24T07:45:11;5.40;;;3.10;;
38083;SDS011;23894;51.466;7.444;2023-04-24T07:47:12;5.35;;;3.20;;
38083;SDS011;23894;51.466;7.444;2023-04-24T07:49:15;5.23;;;2.77;;
38083;SDS011;23894;51.466;7.444;2023-04-24T07:51:18;5.60;;;2.88;;
38083;SDS011;23894;51.466;7.444;2023-04-24T07:53:19;5.45;;;3.00;;
38083;SDS011;23894;51.466;7.444;2023-04-24T07:55:21;5.15;;;2.90;;
38083;SDS011;23894;51.466;7.444;2023-04-24T07:57:25;5.95;;;2.70;;
38083;SDS011;23894;51.466;7.444;2023-04-24T07:59:29;5.60;;;2.85;;
38083;SDS011;23894;51.466;7.444;2023-04-24T08:01:31;7.65;;;2.70;;
38083;SDS011;23894;51.466;7.444;2023-04-24T08:03:35;5.40;;;2.63;;
38083;SDS011;23894;51.466;7.444;2023-04-24T08:05:37;5.75;;;2.50;;
38083;SDS011;23894;51.466;7.444;2023-04-24T08:07:39;4.32;;;2.28;;
38083;SDS011;23894;51.466;7.444;2023-04-24T08:09:42;4.47;;;2.40;;
38083;SDS011;23894;51.466;7.444;2023-04-24T08:11:44;4.72;;;2.20;;
38083;SDS011;23894;51.466;7.444;2023-04-24T08:13:48;4.93;;;2.33;;
38083;SDS011;23894;51.466;7.444;2023-04-24T08:15:51;5.65;;;2.50;;
38083;SDS011;23894;51.466;7.444;2023-04-24T08:17:53;5.32;;;2.67;;
38083;SDS011;23894;51.466;7.444;2023-04-24T08:19:59;4.95;;;2.30;;
38083;SDS011;23894;51.466;7.444;2023-04-24T08:22:02;4.82;;;2.35;;
38083;SDS011;23894;51.466;7.444;2023-04-24T08:24:04;4.40;;;2.20;;
38083;SDS011;23894;51.466;7.444;2023-04-24T08:26:08;4.00;;;2.00;;
38083;SDS011;23894;51.466;7.444;2023-04-24T08:28:15;5.47;;;2.05;;
38083;SDS011;23894;51.466;7.444;2023-04-24T08:30:22;3.45;;;1.40;;
38083;SDS011;23894;51.466;7.444;2023-04-24T08:32:23;4.07;;;1.30;;
38083;SDS011;23894;51.466;7.444;2023-04-24T08:34:24;2.55;;;1.10;;
38083;SDS011;23894;51.466;7.444;2023-04-24T08:36:26;3.85;;;1.10;;
38083;SDS011;23894;51.466;7.444;2023-04-24T08:38:27;2.33;;;1.10;;
38083;SDS011;23894;51.466;7.444;2023-04-24T08:40:31;2.30;;;1.10;;
38083;SDS011;23894;51.466;7.444;2023-04-24T08:42:39;3.17;;;1.05;;
38083;SDS011;23894;51.466;7.444;2023-04-24T08:44:42;1.48;;;0.80;;
38083;SDS011;23894;51.466;7.444;2023-04-24T08:46:46;2.97;;;0.90;;
38083;SDS011;23894;51.466;7.444;2023-04-24T08:48:53;1.90;;;0.98;;
38083;SDS011;23894;51.466;7.444;2023-04-24T08:50:57;2.28;;;1.00;;
38083;SDS011;23894;51.466;7.444;2023-04-24T08:53:03;2.53;;;1.10;;
38083;SDS011;23894;51.466;7.444;2023-04-24T08:55:05;2.58;;;1.17;;
38083;SDS011;23894;51.466;7.444;2023-04-24T08:57:09;2.70;;;1.25;;
38083;SDS011;23894;51.466;7.444;2023-04-24T08:59:32;2.80;;;1.20;;
38083;SDS011;23894;51.466;7.444;2023-04-24T09:01:36;4.88;;;1.10;;
38083;SDS011;23894;51.466;7.444;2023-04-24T09:03:41;2.92;;;1.00;;
38083;SDS011;23894;51.466;7.444;2023-04-24T09:05:46;2.60;;;1.13;;
38083;SDS011;23894;51.466;7.444;2023-04-24T09:07:54;2.60;;;1.00;;
38083;SDS011;23894;51.466;7.444;2023-04-24T09:09:58;2.67;;;1.13;;
38083;SDS011;23894;51.466;7.444;2023-04-24T09:12:02;2.95;;;1.17;;
38083;SDS011;23894;51.466;7.444;2023-04-24T09:14:06;3.33;;;1.30;;
38083;SDS011;23894;51.466;7.444;2023-04-24T09:16:13;3.78;;;1.10;;
38083;SDS011;23894;51.466;7.444;2023-04-24T09:18:19;4.35;;;1.30;;
38083;SDS011;23894;51.466;7.444;2023-04-24T09:20:22;3.20;;;1.40;;
38083;SDS011;23894;51.466;7.444;2023-04-24T09:22:24;4.35;;;1.70;;
38083;SDS011;23894;51.466;7.444;2023-04-24T09:24:25;3.20;;;1.50;;
38083;SDS011;23894;51.466;7.444;2023-04-24T09:26:33;4.53;;;1.50;;
38083;SDS011;23894;51.466;7.444;2023-04-24T09:28:40;5.20;;;2.10;;
38083;SDS011;23894;51.466;7.444;2023-04-24T09:30:46;5.07;;;2.10;;
38083;SDS011;23894;51.466;7.444;2023-04-24T09:33:13;5.25;;;1.90;;
38083;SDS011;23894;51.466;7.444;2023-04-24T09:35:16;4.30;;;1.90;;
38083;SDS011;23894;51.466;7.444;2023-04-24T09:37:28;5.85;;;2.00;;
38083;SDS011;23894;51.466;7.444;2023-04-24T09:39:32;6.10;;;2.20;;
38083;SDS011;23894;51.466;7.444;2023-04-24T09:41:33;7.50;;;2.65;;
38083;SDS011;23894;51.466;7.444;2023-04-24T09:43:34;6.72;;;2.50;;
38083;SDS011;23894;51.466;7.444;2023-04-24T09:45:36;6.27;;;2.60;;
38083;SDS011;23894;51.466;7.444;2023-04-24T09:47:40;5.07;;;2.20;;
38083;SDS011;23894;51.466;7.444;2023-04-24T09:49:44;5.32;;;2.70;;
38083;SDS011;23894;51.466;7.444;2023-04-24T09:51:48;7.50;;;2.65;;
38083;SDS011;23894;51.466;7.444;2023-04-24T09:53:49;5.32;;;2.65;;
38083;SDS011;23894;51.466;7.444;2023-04-24T09:55:56;7.70;;;2.40;;
38083;SDS011;23894;51.466;7.444;2023-04-24T09:58:00;6.47;;;2.50;;
38083;SDS011;23894;51.466;7.444;2023-04-24T10:00:05;4.88;;;2.17;;
38083;SDS011;23894;51.466;7.444;2023-04-24T10:02:17;5.55;;;2.30;;
38083;SDS011;23894;51.466;7.444;2023-04-24T10:04:25;9.02;;;2.40;;
38083;SDS011;23894;51.466;7.444;2023-04-24T10:06:36;6.22;;;2.50;;
38083;SDS011;23894;51.466;7.444;2023-04-24T10:08:39;6.80;;;2.83;;
38083;SDS011;23894;51.466;7.444;2023-04-24T10:10:46;4.82;;;2.40;;
38083;SDS011;23894;51.466;7.444;2023-04-24T10:12:48;5.30;;;2.50;;
38083;SDS011;23894;51.466;7.444;2023-04-24T10:14:51;7.72;;;2.90;;
38083;SDS011;23894;51.466;7.444;2023-04-24T10:16:54;5.63;;;2.92;;
38083;SDS011;23894;51.466;7.444;2023-04-24T10:18:59;7.40;;;3.30;;
38083;SDS011;23894;51.466;7.444;2023-04-24T10:21:00;7.13;;;3.58;;
38083;SDS011;23894;51.466;7.444;2023-04-24T10:23:05;7.20;;;3.70;;
38083;SDS011;23894;51.466;7.444;2023-04-24T10:25:07;7.53;;;3.78;;
38083;SDS011;23894;51.466;7.444;2023-04-24T10:27:13;8.48;;;3.90;;
38083;SDS011;23894;51.466;7.444;2023-04-24T10:29:18;8.35;;;3.90;;
38083;SDS011;23894;51.466;7.444;2023-04-24T10:31:21;7.22;;;3.30;;
38083;SDS011;23894;51.466;7.444;2023-04-24T10:33:24;8.30;;;3.60;;
38083;SDS011;23894;51.466;7.444;2023-04-24T10:35:29;6.25;;;3.40;;
38083;SDS011;23894;51.466;7.444;2023-04-24T10:37:42;6.20;;;3.28;;
38083;SDS011;23894;51.466;7.444;2023-04-24T10:39:47;7.85;;;3.50;;
38083;SDS011;23894;51.466;7.444;2023-04-24T10:41:49;5.93;;;3.55;;
38083;SDS011;23894;51.466;7.444;2023-04-24T10:44:08;5.50;;;3.50;;
38083;SDS011;23894;51.466;7.444;2023-04-24T10:46:09;9.32;;;3.55;;
38083;SDS011;23894;51.466;7.444;2023-04-24T10:48:11;6.57;;;3.90;;
38083;SDS011;23894;51.466;7.444;2023-04-24T10:50:16;8.07;;;3.97;;
38083;SDS011;23894;51.466;7.444;2023-04-24T10:52:18;7.43;;;4.18;;
38083;SDS011;23894;51.466;7.444;2023-04-24T10:56:25;9.05;;;4.55;;
38083;SDS011;23894;51.466;7.444;2023-04-24T10:58:44;7.68;;;4.80;;
38083;SDS011;23894;51.466;7.444;2023-04-24T11:00:55;7.95;;;5.13;;
38083;SDS011;23894;51.466;7.444;2023-04-24T11:02:59;9.15;;;5.40;;
38083;SDS011;23894;51.466;7.444;2023-04-24T11:05:06;9.50;;;5.80;;
38083;SDS011;23894;51.466;7.444;2023-04-24T11:07:07;9.73;;;5.47;;
38083;SDS011;23894;51.466;7.444;2023-04-24T11:09:10;9.52;;;5.75;;
38083;SDS011;23894;51.466;7.444;2023-04-24T11:11:17;11.03;;;6.00;;
38083;SDS011;23894;51.466;7.444;2023-04-24T11:13:23;10.75;;;6.63;;
38083;SDS011;23894;51.466;7.444;2023-04-24T11:15:35;14.13;;;7.15;;
38083;SDS011;23894;51.466;7.444;2023-04-24T11:17:37;15.63;;;6.95;;
38083;SDS011;23894;51.466;7.444;2023-04-24T11:19:42;12.50;;;7.43;;
38083;SDS011;23894;51.466;7.444;2023-04-24T11:21:59;15.05;;;7.43;;
38083;SDS011;23894;51.466;7.444;2023-04-24T11:24:49;15.63;;;8.18;;
38083;SDS011;23894;51.466;7.444;2023-04-24T11:26:33;14.63;;;8.10;;
38083;SDS011;23894;51.466;7.444;2023-04-24T11:28:49;14.50;;;8.52;;
38083;SDS011;23894;51.466;7.444;2023-04-24T11:30:53;16.05;;;8.60;;
38083;SDS011;23894;51.466;7.444;2023-04-24T11:33:01;16.83;;;8.77;;
38083;SDS011;23894;51.466;7.444;2023-04-24T11:35:12;15.65;;;8.85;;
38083;SDS011;23894;51.466;7.444;2023-04-24T11:37:16;18.83;;;9.80;;
38083;SDS011;23894;51.466;7.444;2023-04-24T11:39:17;13.90;;;9.00;;
38083;SDS011;23894;51.466;7.444;2023-04-24T11:41:22;17.35;;;9.40;;
38083;SDS011;23894;51.466;7.444;2023-04-24T11:43:23;17.77;;;9.38;;
38083;SDS011;23894;51.466;7.444;2023-04-24T11:45:27;16.95;;;8.50;;
38083;SDS011;23894;51.466;7.444;2023-04-24T11:47:31;15.90;;;8.82;;
38083;SDS011;23894;51.466;7.444;2023-04-24T11:49:40;18.80;;;9.77;;
38083;SDS011;23894;51.466;7.444;2023-04-24T11:51:46;16.08;;;9.38;;
38083;SDS011;23894;51.466;7.444;2023-04-24T11:53:50;16.52;;;9.60;;
38083;SDS011;23894;51.466;7.444;2023-04-24T11:55:52;17.40;;;9.95;;
38083;SDS011;23894;51.466;7.444;2023-04-24T11:57:58;18.48;;;9.90;;
38083;SDS011;23894;51.466;7.444;2023-04-24T12:00:01;17.13;;;9.57;;
38083;SDS011;23894;51.466;7.444;2023-04-24T12:02:05;16.13;;;9.25;;
38083;SDS011;23894;51.466;7.444;2023-04-24T12:04:08;15.68;;;9.38;;
38083;SDS011;23894;51.466;7.444;2023-04-24T12:06:12;16.15;;;9.02;;
38083;SDS011;23894;51.466;7.444;2023-04-24T12:08:35;19.50;;;9.38;;
38083;SDS011;23894;51.466;7.444;2023-04-24T12:10:36;16.48;;;8.98;;
38083;SDS011;23894;51.466;7.444;2023-04-24T12:12:38;17.25;;;8.77;;
38083;SDS011;23894;51.466;7.444;2023-04-24T12:14:52;18.17;;;9.20;;
38083;SDS011;23894;51.466;7.444;2023-04-24T12:16:53;17.20;;;7.75;;
38083;SDS011;23894;51.466;7.444;2023-04-24T12:18:55;14.27;;;7.03;;